WetterOnline ( https://www.wetteronline.de )

Wetter aktuell Kühlungsborn

Aktuelles Wetter: Rostock-Warnemünde (10m)

6-stündlich | Neueste Meldungen
Ortszeit Temperatur Wetter
Do, 29.10. 13:00 10.9° C bewölkt
Do, 29.10. 7:00 9.2° C Sprühregen
Do, 29.10. 1:00 9.3° C bewölkt
Mi, 28.10. 19:00 11.2° C bewölkt
Mi, 28.10. 13:00 13.5° C leicht bewölkt
Mi, 28.10. 7:00 9.1° C Regen
Mi, 28.10. 1:00 9.3° C wolkig
Di, 27.10. 19:00 9.8° C fast wolkenlos
Ortszeit Temperatur Wetter
Do, 29.10. 15:40 11.0° C leicht bewölkt
Do, 29.10. 15:30 11.0° C fast wolkenlos
Do, 29.10. 15:20 11.0° C fast wolkenlos
Do, 29.10. 15:10 11.1° C fast wolkenlos
Do, 29.10. 15:00 11.3° C wolkenlos
Do, 29.10. 14:50 11.3° C wolkenlos
Do, 29.10. 14:30 11.2° C leicht bewölkt
Do, 29.10. 14:00 11.3° C bewölkt
Do, 29.10. 13:30 11.2° C bewölkt
Do, 29.10. 13:00 10.9° C bewölkt
Do, 29.10. 12:30 10.6° C wolkig
Ortszeit Relative Feuchte Sichtweite
Do, 29.10. 13:00 73% 45 km
Do, 29.10. 7:00 91% 30 km
Do, 29.10. 1:00 82% 50 km
Mi, 28.10. 19:00 80% 45 km
Mi, 28.10. 13:00 64% 45 km
Mi, 28.10. 7:00 92% 30 km
Mi, 28.10. 1:00 78% 55 km
Di, 27.10. 19:00 78% 45 km
Ortszeit Relative Feuchte Sichtweite
Do, 29.10. 15:40 75% -
Do, 29.10. 15:30 75% 45 km
Do, 29.10. 15:20 75% -
Do, 29.10. 15:10 74% -
Do, 29.10. 15:00 74% 40 km
Do, 29.10. 14:50 74% -
Do, 29.10. 14:30 73% 45 km
Do, 29.10. 14:00 74% 40 km
Do, 29.10. 13:30 74% 50 km
Do, 29.10. 13:00 73% 45 km
Do, 29.10. 12:30 74% 60 km
Ortszeit Niederschlagsmenge Niederschlagsart
Do, 29.10. 13:00 0.1 l/m2 in 6 Std. Regen
Do, 29.10. 7:00 3 l/m2 in 12 Std. Regen
Do, 29.10. 1:00 0.1 l/m2 in 6 Std. Regen
Mi, 28.10. 19:00 0.1 l/m2 in 12 Std. Regen
Mi, 28.10. 13:00 0.1 l/m2 in 6 Std. Regen
Mi, 28.10. 7:00 0.5 l/m2 in 12 Std. Regen
Mi, 28.10. 1:00 0.1 l/m2 in 6 Std. Regen
Di, 27.10. 19:00 0.0 l/m2 in 12 Std. -
Ortszeit Niederschlagsmenge Niederschlagsart
Do, 29.10. 15:40 keine Meldung -
Do, 29.10. 15:30 0.0 l/m2 in 1 Std. -
Do, 29.10. 15:20 keine Meldung -
Do, 29.10. 15:10 keine Meldung -
Do, 29.10. 15:00 0.0 l/m2 in 1 Std. -
Do, 29.10. 14:50 keine Meldung -
Do, 29.10. 14:30 0.0 l/m2 in 1 Std. -
Do, 29.10. 14:00 0.0 l/m2 in 1 Std. -
Do, 29.10. 13:30 0.0 l/m2 in 1 Std. -
Do, 29.10. 13:00 0.0 l/m2 in 1 Std. Regen
Do, 29.10. 12:30 0.0 l/m2 in 1 Std. -
Ortszeit Stärke Spitze Richtung
km/h Bft. km/h Grad Sektor
Do, 29.10. 13:00 22 4 43 260° W
Do, 29.10. 7:00 13 3 31 220° SW
Do, 29.10. 1:00 9 2 30 170° S
Mi, 28.10. 19:00 9 2 39 180° S
Mi, 28.10. 13:00 18 3 40 210° SW
Mi, 28.10. 7:00 18 3 47 190° S
Mi, 28.10. 1:00 14 3 36 170° S
Di, 27.10. 19:00 13 3 37 180° S
Ortszeit Stärke Spitze Richtung
km/h Bft. km/h Grad Sektor
Do, 29.10. 15:40 19 3 - 250° W
Do, 29.10. 15:30 22 4 43 250° W
Do, 29.10. 15:20 22 4 - 250° W
Do, 29.10. 15:10 22 4 - 250° W
Do, 29.10. 15:00 22 4 44 260° W
Do, 29.10. 14:50 22 4 - 260° W
Do, 29.10. 14:30 24 4 44 250° W
Do, 29.10. 14:00 24 4 50 250° W
Do, 29.10. 13:30 20 4 50 250° W
Do, 29.10. 13:00 22 4 43 260° W
Do, 29.10. 12:30 20 4 39 250° W
Ortszeit Untergrenze Bedeckung Gattung
total tief tief mittel hoch
Do, 29.10. 13:00 720 m 7/8 7/8 - - -
Do, 29.10. 7:00 1500 m 7/8 7/8 - - -
Do, 29.10. 1:00 3000 m 7/8 6/8 - - -
Mi, 28.10. 19:00 1470 m 8/8 5/8 - - -
Mi, 28.10. 13:00 780 m 2/8 1/8 - - -
Mi, 28.10. 7:00 270 m 8/8 8/8 - - -
Mi, 28.10. 1:00 5400 m 8/8 1/8 - - -
Di, 27.10. 19:00 2100 m 0/8 0/8 - - -
Ortszeit Bedeckungsgrad in Achtel und Wolkenuntergrenze
Do, 29.10. 15:40 4(1500m)
Do, 29.10. 15:30 1(600m)
Do, 29.10. 15:20 1(600m)
Do, 29.10. 15:10 1(600m)
Do, 29.10. 15:00 1(600m)
Do, 29.10. 14:50 keine Wolken
Do, 29.10. 14:30 2(630m) 3(1110m)
Do, 29.10. 14:00 4(630m) 7(1500m) 7(2100m)
Do, 29.10. 13:30 4(660m) 7(1500m) 7(1800m)
Do, 29.10. 13:00 3(720m) 6(1050m) 7(1500m)
Do, 29.10. 12:30 1(600m) 5(1230m) 5(2400m)
Ortszeit Luftdruck NN (hPa) Tendenz (hPa in 3 Std.)
Do, 29.10. 13:00 1009 + 2,3
Do, 29.10. 7:00 1004 0,0
Do, 29.10. 1:00 1006 - 1,1
Mi, 28.10. 19:00 1007 + 0,6
Mi, 28.10. 13:00 1006 + 0,2
Mi, 28.10. 7:00 1003 + 0,6
Mi, 28.10. 1:00 1004 - 1,2
Di, 27.10. 19:00 1005 + 0,3
Ortszeit Luftdruck NN (hPa) Tendenz (hPa in 3 Std.)
Do, 29.10. 15:40 1011 keine Meldung
Do, 29.10. 15:30 1011 + 2,0
Do, 29.10. 15:20 1011 keine Meldung
Do, 29.10. 15:10 1010 keine Meldung
Do, 29.10. 15:00 1010 + 1,9
Do, 29.10. 14:50 1010 keine Meldung
Do, 29.10. 14:30 1010 + 1,9
Do, 29.10. 14:00 1010 + 2,1
Do, 29.10. 13:30 1009 + 2,2
Do, 29.10. 13:00 1009 + 2,3
Do, 29.10. 12:30 1009 + 2,4
Ortszeit Schneehöhe (cm)
Do, 29.10. 13:00 0
Do, 29.10. 7:00 0
Do, 29.10. 1:00 0
Mi, 28.10. 19:00 0
Mi, 28.10. 13:00 0
Mi, 28.10. 7:00 0
Mi, 28.10. 1:00 0
Di, 27.10. 19:00 0
Ortszeit Schneehöhe (cm)
Do, 29.10. 15:40 0
Do, 29.10. 15:30 0
Do, 29.10. 15:20 0
Do, 29.10. 15:10 0
Do, 29.10. 15:00 0
Do, 29.10. 14:50 0
Do, 29.10. 14:30 0
Do, 29.10. 14:00 0
Do, 29.10. 13:30 0
Do, 29.10. 13:00 0
Do, 29.10. 12:30 0
Link zu dieser Seite / Seite empfehlen

Das Wetter in ...